MMCP/CPE METAR and TAF weather

Enter ICAO airport designator
Station Type Date Time Source
MMCP METAR 2020/04/06 13:46 UTC NOAA

MMCP 061346Z 15012KT 6SM SKC 26/21 A2995 RMK HZY


Station Type Date Time Source
MMCP Decoded METAR 2020/04/06 13:46 UTC NOAA

Campeche, Camp., Mexico (MMCP) 19-51N 090-33W
Apr 06, 2020 - 09:46 AM EDT / 2020.04.06 1346 UTC
Wind: from the SSE (150 degrees) at 14 MPH (12 KT):0
Visibility: 6 mile(s):0
Sky conditions: clear
Temperature: 78 F (26 C)
Dew Point: 69 F (21 C)
Relative Humidity: 73%
Pressure (altimeter): 29.95 in. Hg (1014 hPa)
ob: MMCP 061346Z 15012KT 6SM SKC 26/21 A2995 RMK HZY
cycle: 14

Station Type Date Time Source
MMCP TAF 2020/04/06 06:55 UTC NOAA

TAF MMCP 060451Z 0606/0706 35008KT 6SM HZ SKC
BECMG 0613/0614 14015KT
FM061900 30012KT 6SM HZ SCT030
FM070300 34008KT 6SM HZ SKC

Example: see airport list